sensor_id;sensor_type;location;lat;lon;timestamp;P1;durP1;ratioP1;P2;durP2;ratioP2
79597;SDS011;69081;53.572;9.970;2023-08-01T00:01:03;2.97;;;2.10;;
79597;SDS011;69081;53.572;9.970;2023-08-01T00:03:31;3.30;;;2.50;;
79597;SDS011;69081;53.572;9.970;2023-08-01T00:06:01;2.83;;;2.10;;
79597;SDS011;69081;53.572;9.970;2023-08-01T00:08:29;2.60;;;2.28;;
79597;SDS011;69081;53.572;9.970;2023-08-01T00:10:57;3.67;;;2.70;;
79597;SDS011;69081;53.572;9.970;2023-08-01T00:13:25;2.90;;;2.50;;
79597;SDS011;69081;53.572;9.970;2023-08-01T00:15:53;3.25;;;2.30;;
79597;SDS011;69081;53.572;9.970;2023-08-01T00:18:33;4.10;;;2.40;;
79597;SDS011;69081;53.572;9.970;2023-08-01T00:21:03;3.33;;;3.03;;
79597;SDS011;69081;53.572;9.970;2023-08-01T00:23:35;3.50;;;2.33;;
79597;SDS011;69081;53.572;9.970;2023-08-01T00:26:03;3.05;;;2.30;;
79597;SDS011;69081;53.572;9.970;2023-08-01T00:28:32;3.45;;;2.45;;
79597;SDS011;69081;53.572;9.970;2023-08-01T00:31:04;3.78;;;2.50;;
79597;SDS011;69081;53.572;9.970;2023-08-01T00:33:32;3.78;;;2.47;;
79597;SDS011;69081;53.572;9.970;2023-08-01T00:36:02;3.28;;;2.28;;
79597;SDS011;69081;53.572;9.970;2023-08-01T00:41:03;3.10;;;2.20;;
79597;SDS011;69081;53.572;9.970;2023-08-01T00:43:32;3.30;;;2.47;;
79597;SDS011;69081;53.572;9.970;2023-08-01T00:46:00;2.80;;;2.30;;
79597;SDS011;69081;53.572;9.970;2023-08-01T00:48:29;3.58;;;2.53;;
79597;SDS011;69081;53.572;9.970;2023-08-01T00:50:57;2.67;;;2.17;;
79597;SDS011;69081;53.572;9.970;2023-08-01T00:53:29;3.33;;;2.45;;
79597;SDS011;69081;53.572;9.970;2023-08-01T00:55:58;4.80;;;2.67;;
79597;SDS011;69081;53.572;9.970;2023-08-01T01:00:54;3.33;;;2.47;;
79597;SDS011;69081;53.572;9.970;2023-08-01T01:03:23;3.08;;;2.50;;
79597;SDS011;69081;53.572;9.970;2023-08-01T01:05:53;3.05;;;2.55;;
79597;SDS011;69081;53.572;9.970;2023-08-01T01:08:24;3.47;;;2.35;;
79597;SDS011;69081;53.572;9.970;2023-08-01T01:10:54;3.08;;;2.78;;
79597;SDS011;69081;53.572;9.970;2023-08-01T01:13:22;2.80;;;2.30;;
79597;SDS011;69081;53.572;9.970;2023-08-01T01:15:50;5.32;;;2.78;;
79597;SDS011;69081;53.572;9.970;2023-08-01T01:18:18;4.07;;;2.90;;
79597;SDS011;69081;53.572;9.970;2023-08-01T01:20:48;3.17;;;2.40;;
79597;SDS011;69081;53.572;9.970;2023-08-01T01:23:16;3.60;;;2.40;;
79597;SDS011;69081;53.572;9.970;2023-08-01T01:25:45;2.83;;;2.25;;
79597;SDS011;69081;53.572;9.970;2023-08-01T01:28:14;2.95;;;2.35;;
79597;SDS011;69081;53.572;9.970;2023-08-01T01:30:43;3.08;;;2.35;;
79597;SDS011;69081;53.572;9.970;2023-08-01T01:33:11;2.90;;;2.50;;
79597;SDS011;69081;53.572;9.970;2023-08-01T01:35:40;3.03;;;2.30;;
79597;SDS011;69081;53.572;9.970;2023-08-01T01:38:10;3.35;;;2.70;;
79597;SDS011;69081;53.572;9.970;2023-08-01T01:40:38;3.90;;;2.55;;
79597;SDS011;69081;53.572;9.970;2023-08-01T01:43:07;2.58;;;2.20;;
79597;SDS011;69081;53.572;9.970;2023-08-01T01:45:36;3.35;;;2.60;;
79597;SDS011;69081;53.572;9.970;2023-08-01T01:48:04;3.28;;;2.47;;
79597;SDS011;69081;53.572;9.970;2023-08-01T01:50:32;4.07;;;2.40;;
79597;SDS011;69081;53.572;9.970;2023-08-01T01:53:00;3.75;;;2.58;;
79597;SDS011;69081;53.572;9.970;2023-08-01T01:55:30;3.63;;;2.90;;
79597;SDS011;69081;53.572;9.970;2023-08-01T01:57:58;3.85;;;2.97;;
79597;SDS011;69081;53.572;9.970;2023-08-01T02:00:26;2.60;;;2.25;;
79597;SDS011;69081;53.572;9.970;2023-08-01T02:02:55;3.22;;;2.50;;
79597;SDS011;69081;53.572;9.970;2023-08-01T02:05:23;2.90;;;2.33;;
79597;SDS011;69081;53.572;9.970;2023-08-01T02:07:51;3.50;;;2.50;;
79597;SDS011;69081;53.572;9.970;2023-08-01T02:10:19;3.40;;;2.50;;
79597;SDS011;69081;53.572;9.970;2023-08-01T02:12:49;2.60;;;2.33;;
79597;SDS011;69081;53.572;9.970;2023-08-01T02:15:17;3.80;;;2.35;;
79597;SDS011;69081;53.572;9.970;2023-08-01T02:17:45;3.72;;;2.50;;
79597;SDS011;69081;53.572;9.970;2023-08-01T02:20:13;3.75;;;2.80;;
79597;SDS011;69081;53.572;9.970;2023-08-01T02:22:42;4.22;;;2.70;;
79597;SDS011;69081;53.572;9.970;2023-08-01T02:25:10;3.75;;;2.83;;
79597;SDS011;69081;53.572;9.970;2023-08-01T02:30:08;4.38;;;2.72;;
79597;SDS011;69081;53.572;9.970;2023-08-01T02:32:37;3.70;;;2.72;;
79597;SDS011;69081;53.572;9.970;2023-08-01T02:35:06;3.17;;;2.45;;
79597;SDS011;69081;53.572;9.970;2023-08-01T02:37:35;3.42;;;2.58;;
79597;SDS011;69081;53.572;9.970;2023-08-01T02:40:04;3.92;;;2.70;;
79597;SDS011;69081;53.572;9.970;2023-08-01T02:42:34;3.83;;;2.70;;
79597;SDS011;69081;53.572;9.970;2023-08-01T02:45:02;4.95;;;2.85;;
79597;SDS011;69081;53.572;9.970;2023-08-01T02:47:32;3.58;;;2.58;;
79597;SDS011;69081;53.572;9.970;2023-08-01T02:50:01;3.80;;;3.10;;
79597;SDS011;69081;53.572;9.970;2023-08-01T02:54:57;2.85;;;2.40;;
79597;SDS011;69081;53.572;9.970;2023-08-01T02:57:25;4.38;;;2.70;;
79597;SDS011;69081;53.572;9.970;2023-08-01T02:59:54;3.45;;;2.67;;
79597;SDS011;69081;53.572;9.970;2023-08-01T03:02:22;3.22;;;2.72;;
79597;SDS011;69081;53.572;9.970;2023-08-01T03:04:52;3.15;;;2.65;;
79597;SDS011;69081;53.572;9.970;2023-08-01T03:07:20;3.35;;;2.30;;
79597;SDS011;69081;53.572;9.970;2023-08-01T03:09:48;3.63;;;2.85;;
79597;SDS011;69081;53.572;9.970;2023-08-01T03:12:16;3.53;;;2.35;;
79597;SDS011;69081;53.572;9.970;2023-08-01T03:14:45;3.42;;;2.63;;
79597;SDS011;69081;53.572;9.970;2023-08-01T03:17:14;3.30;;;2.63;;
79597;SDS011;69081;53.572;9.970;2023-08-01T03:19:43;4.63;;;2.83;;
79597;SDS011;69081;53.572;9.970;2023-08-01T03:22:13;3.10;;;2.80;;
79597;SDS011;69081;53.572;9.970;2023-08-01T03:24:41;3.28;;;2.80;;
79597;SDS011;69081;53.572;9.970;2023-08-01T03:27:09;4.30;;;2.80;;
79597;SDS011;69081;53.572;9.970;2023-08-01T03:29:38;4.50;;;3.10;;
79597;SDS011;69081;53.572;9.970;2023-08-01T03:32:06;3.03;;;2.58;;
79597;SDS011;69081;53.572;9.970;2023-08-01T03:37:03;4.03;;;2.75;;
79597;SDS011;69081;53.572;9.970;2023-08-01T03:39:33;3.97;;;2.78;;
79597;SDS011;69081;53.572;9.970;2023-08-01T03:42:01;3.38;;;2.85;;
79597;SDS011;69081;53.572;9.970;2023-08-01T03:44:30;3.35;;;2.60;;
79597;SDS011;69081;53.572;9.970;2023-08-01T03:46:59;3.60;;;2.97;;
79597;SDS011;69081;53.572;9.970;2023-08-01T03:49:27;3.10;;;2.20;;
79597;SDS011;69081;53.572;9.970;2023-08-01T03:51:55;3.83;;;2.85;;
79597;SDS011;69081;53.572;9.970;2023-08-01T03:54:26;2.72;;;2.45;;
79597;SDS011;69081;53.572;9.970;2023-08-01T03:56:55;2.83;;;2.50;;
79597;SDS011;69081;53.572;9.970;2023-08-01T03:59:23;3.47;;;2.72;;
79597;SDS011;69081;53.572;9.970;2023-08-01T04:01:52;3.13;;;2.50;;
79597;SDS011;69081;53.572;9.970;2023-08-01T04:04:21;3.80;;;2.58;;
79597;SDS011;69081;53.572;9.970;2023-08-01T04:06:49;3.45;;;2.70;;
79597;SDS011;69081;53.572;9.970;2023-08-01T04:09:17;3.38;;;2.50;;
79597;SDS011;69081;53.572;9.970;2023-08-01T04:11:45;3.63;;;2.70;;
79597;SDS011;69081;53.572;9.970;2023-08-01T04:14:15;5.75;;;2.97;;
79597;SDS011;69081;53.572;9.970;2023-08-01T04:16:43;3.58;;;2.50;;
79597;SDS011;69081;53.572;9.970;2023-08-01T04:19:12;2.97;;;2.40;;
79597;SDS011;69081;53.572;9.970;2023-08-01T04:21:40;4.03;;;3.03;;
79597;SDS011;69081;53.572;9.970;2023-08-01T04:24:08;6.32;;;3.13;;
79597;SDS011;69081;53.572;9.970;2023-08-01T04:26:37;4.03;;;2.63;;
79597;SDS011;69081;53.572;9.970;2023-08-01T04:29:05;3.22;;;2.70;;
79597;SDS011;69081;53.572;9.970;2023-08-01T04:31:35;3.80;;;2.70;;
79597;SDS011;69081;53.572;9.970;2023-08-01T04:34:03;3.55;;;2.42;;
79597;SDS011;69081;53.572;9.970;2023-08-01T04:36:31;3.55;;;2.72;;
79597;SDS011;69081;53.572;9.970;2023-08-01T04:39:00;3.45;;;2.72;;
79597;SDS011;69081;53.572;9.970;2023-08-01T04:41:28;4.03;;;2.60;;
79597;SDS011;69081;53.572;9.970;2023-08-01T04:43:56;5.07;;;3.35;;
79597;SDS011;69081;53.572;9.970;2023-08-01T04:46:25;3.53;;;2.67;;
79597;SDS011;69081;53.572;9.970;2023-08-01T04:48:54;3.00;;;2.28;;
79597;SDS011;69081;53.572;9.970;2023-08-01T04:51:23;3.38;;;2.53;;
79597;SDS011;69081;53.572;9.970;2023-08-01T04:53:51;3.67;;;2.80;;
79597;SDS011;69081;53.572;9.970;2023-08-01T04:56:19;4.03;;;2.67;;
79597;SDS011;69081;53.572;9.970;2023-08-01T04:58:47;3.90;;;2.80;;
79597;SDS011;69081;53.572;9.970;2023-08-01T05:01:16;4.03;;;3.03;;
79597;SDS011;69081;53.572;9.970;2023-08-01T05:03:44;4.15;;;2.60;;
79597;SDS011;69081;53.572;9.970;2023-08-01T05:06:14;5.57;;;2.45;;
79597;SDS011;69081;53.572;9.970;2023-08-01T05:08:42;3.72;;;2.72;;
79597;SDS011;69081;53.572;9.970;2023-08-01T05:11:11;2.83;;;2.05;;
79597;SDS011;69081;53.572;9.970;2023-08-01T05:13:39;3.88;;;3.20;;
79597;SDS011;69081;53.572;9.970;2023-08-01T05:16:07;3.33;;;2.65;;
79597;SDS011;69081;53.572;9.970;2023-08-01T05:18:36;3.92;;;2.42;;
79597;SDS011;69081;53.572;9.970;2023-08-01T05:21:04;3.03;;;2.50;;
79597;SDS011;69081;53.572;9.970;2023-08-01T05:23:33;3.47;;;2.70;;
79597;SDS011;69081;53.572;9.970;2023-08-01T05:26:02;4.40;;;2.47;;
79597;SDS011;69081;53.572;9.970;2023-08-01T05:28:30;6.10;;;3.00;;
79597;SDS011;69081;53.572;9.970;2023-08-01T05:30:58;3.63;;;2.72;;
79597;SDS011;69081;53.572;9.970;2023-08-01T05:33:27;3.53;;;2.63;;
79597;SDS011;69081;53.572;9.970;2023-08-01T05:35:55;4.57;;;2.78;;
79597;SDS011;69081;53.572;9.970;2023-08-01T05:38:23;3.20;;;2.58;;
79597;SDS011;69081;53.572;9.970;2023-08-01T05:40:53;4.18;;;2.50;;
79597;SDS011;69081;53.572;9.970;2023-08-01T05:43:21;3.00;;;2.25;;
79597;SDS011;69081;53.572;9.970;2023-08-01T05:45:49;4.35;;;2.65;;
79597;SDS011;69081;53.572;9.970;2023-08-01T05:48:19;4.10;;;2.50;;
79597;SDS011;69081;53.572;9.970;2023-08-01T05:50:47;3.17;;;2.40;;
79597;SDS011;69081;53.572;9.970;2023-08-01T05:53:15;3.45;;;2.65;;
79597;SDS011;69081;53.572;9.970;2023-08-01T05:55:44;3.33;;;2.42;;
79597;SDS011;69081;53.572;9.970;2023-08-01T05:58:13;3.85;;;2.63;;
79597;SDS011;69081;53.572;9.970;2023-08-01T06:00:41;4.38;;;2.47;;
79597;SDS011;69081;53.572;9.970;2023-08-01T06:03:10;3.30;;;2.55;;
79597;SDS011;69081;53.572;9.970;2023-08-01T06:05:39;3.75;;;3.03;;
79597;SDS011;69081;53.572;9.970;2023-08-01T06:08:07;4.18;;;2.53;;
79597;SDS011;69081;53.572;9.970;2023-08-01T06:10:36;4.47;;;2.88;;
79597;SDS011;69081;53.572;9.970;2023-08-01T06:15:34;3.90;;;2.67;;
79597;SDS011;69081;53.572;9.970;2023-08-01T06:18:02;3.83;;;2.50;;
79597;SDS011;69081;53.572;9.970;2023-08-01T06:20:30;3.40;;;2.67;;
79597;SDS011;69081;53.572;9.970;2023-08-01T06:22:59;3.08;;;2.40;;
79597;SDS011;69081;53.572;9.970;2023-08-01T06:25:27;3.28;;;2.63;;
79597;SDS011;69081;53.572;9.970;2023-08-01T06:27:55;3.72;;;2.65;;
79597;SDS011;69081;53.572;9.970;2023-08-01T06:32:53;4.13;;;2.85;;
79597;SDS011;69081;53.572;9.970;2023-08-01T06:35:21;3.30;;;2.33;;
79597;SDS011;69081;53.572;9.970;2023-08-01T06:37:49;3.78;;;2.63;;
79597;SDS011;69081;53.572;9.970;2023-08-01T06:40:18;4.32;;;2.58;;
79597;SDS011;69081;53.572;9.970;2023-08-01T06:42:46;3.80;;;2.80;;
79597;SDS011;69081;53.572;9.970;2023-08-01T06:45:15;3.20;;;2.30;;
79597;SDS011;69081;53.572;9.970;2023-08-01T06:47:44;4.25;;;2.90;;
79597;SDS011;69081;53.572;9.970;2023-08-01T06:50:14;3.00;;;2.40;;
79597;SDS011;69081;53.572;9.970;2023-08-01T06:52:42;3.70;;;2.60;;
79597;SDS011;69081;53.572;9.970;2023-08-01T06:55:10;3.30;;;2.55;;
79597;SDS011;69081;53.572;9.970;2023-08-01T06:57:38;3.63;;;2.97;;
79597;SDS011;69081;53.572;9.970;2023-08-01T07:02:35;3.95;;;2.80;;
79597;SDS011;69081;53.572;9.970;2023-08-01T07:05:04;3.78;;;2.83;;
79597;SDS011;69081;53.572;9.970;2023-08-01T07:07:34;5.43;;;2.60;;
79597;SDS011;69081;53.572;9.970;2023-08-01T07:10:02;3.45;;;2.65;;
79597;SDS011;69081;53.572;9.970;2023-08-01T07:12:30;3.10;;;2.53;;
79597;SDS011;69081;53.572;9.970;2023-08-01T07:14:59;3.60;;;2.88;;
79597;SDS011;69081;53.572;9.970;2023-08-01T07:17:28;3.85;;;2.75;;
79597;SDS011;69081;53.572;9.970;2023-08-01T07:19:56;3.92;;;3.08;;
79597;SDS011;69081;53.572;9.970;2023-08-01T07:22:24;3.83;;;2.90;;
79597;SDS011;69081;53.572;9.970;2023-08-01T07:24:54;3.50;;;2.60;;
79597;SDS011;69081;53.572;9.970;2023-08-01T07:27:22;3.65;;;2.58;;
79597;SDS011;69081;53.572;9.970;2023-08-01T07:29:50;3.00;;;2.30;;
79597;SDS011;69081;53.572;9.970;2023-08-01T07:32:18;2.95;;;2.45;;
79597;SDS011;69081;53.572;9.970;2023-08-01T07:34:47;2.97;;;2.35;;
79597;SDS011;69081;53.572;9.970;2023-08-01T07:37:15;3.60;;;2.55;;
79597;SDS011;69081;53.572;9.970;2023-08-01T07:39:43;3.33;;;2.20;;
79597;SDS011;69081;53.572;9.970;2023-08-01T07:42:13;3.25;;;2.40;;
79597;SDS011;69081;53.572;9.970;2023-08-01T07:44:41;3.28;;;2.50;;
79597;SDS011;69081;53.572;9.970;2023-08-01T07:47:09;3.75;;;2.30;;
79597;SDS011;69081;53.572;9.970;2023-08-01T07:49:37;3.20;;;2.75;;
79597;SDS011;69081;53.572;9.970;2023-08-01T07:52:05;2.75;;;2.10;;
79597;SDS011;69081;53.572;9.970;2023-08-01T07:54:37;3.47;;;2.45;;
79597;SDS011;69081;53.572;9.970;2023-08-01T07:57:05;3.03;;;2.13;;
79597;SDS011;69081;53.572;9.970;2023-08-01T07:59:35;4.00;;;2.90;;
79597;SDS011;69081;53.572;9.970;2023-08-01T08:02:03;3.72;;;2.33;;
79597;SDS011;69081;53.572;9.970;2023-08-01T08:04:32;3.17;;;2.38;;
79597;SDS011;69081;53.572;9.970;2023-08-01T08:07:00;5.10;;;2.80;;
79597;SDS011;69081;53.572;9.970;2023-08-01T08:09:28;3.60;;;2.75;;
79597;SDS011;69081;53.572;9.970;2023-08-01T08:11:56;2.60;;;2.13;;
79597;SDS011;69081;53.572;9.970;2023-08-01T08:14:25;2.78;;;2.25;;
79597;SDS011;69081;53.572;9.970;2023-08-01T08:16:54;3.28;;;2.35;;
79597;SDS011;69081;53.572;9.970;2023-08-01T08:19:23;3.63;;;2.60;;
79597;SDS011;69081;53.572;9.970;2023-08-01T08:21:51;3.00;;;2.55;;
79597;SDS011;69081;53.572;9.970;2023-08-01T08:24:20;3.30;;;2.50;;
79597;SDS011;69081;53.572;9.970;2023-08-01T08:26:48;2.97;;;2.22;;
79597;SDS011;69081;53.572;9.970;2023-08-01T08:29:16;4.35;;;3.00;;
79597;SDS011;69081;53.572;9.970;2023-08-01T08:31:44;3.13;;;2.42;;
79597;SDS011;69081;53.572;9.970;2023-08-01T08:34:14;2.50;;;2.00;;
79597;SDS011;69081;53.572;9.970;2023-08-01T08:36:42;3.30;;;2.70;;
79597;SDS011;69081;53.572;9.970;2023-08-01T08:39:10;3.05;;;2.33;;
79597;SDS011;69081;53.572;9.970;2023-08-01T08:41:39;3.95;;;2.70;;
79597;SDS011;69081;53.572;9.970;2023-08-01T08:44:14;2.85;;;2.30;;
79597;SDS011;69081;53.572;9.970;2023-08-01T08:46:43;2.83;;;2.33;;
79597;SDS011;69081;53.572;9.970;2023-08-01T08:49:13;2.97;;;2.33;;
79597;SDS011;69081;53.572;9.970;2023-08-01T08:51:42;6.72;;;2.42;;
79597;SDS011;69081;53.572;9.970;2023-08-01T08:54:11;3.78;;;2.70;;
79597;SDS011;69081;53.572;9.970;2023-08-01T08:56:41;3.42;;;2.70;;
79597;SDS011;69081;53.572;9.970;2023-08-01T08:59:11;3.60;;;2.60;;
79597;SDS011;69081;53.572;9.970;2023-08-01T09:04:08;3.20;;;2.30;;
79597;SDS011;69081;53.572;9.970;2023-08-01T09:06:40;3.00;;;2.50;;
79597;SDS011;69081;53.572;9.970;2023-08-01T09:09:11;2.38;;;1.80;;
79597;SDS011;69081;53.572;9.970;2023-08-01T09:11:41;2.83;;;2.20;;
79597;SDS011;69081;53.572;9.970;2023-08-01T09:14:11;2.75;;;2.30;;
79597;SDS011;69081;53.572;9.970;2023-08-01T09:16:40;3.60;;;2.40;;
79597;SDS011;69081;53.572;9.970;2023-08-01T09:19:09;3.20;;;2.40;;
79597;SDS011;69081;53.572;9.970;2023-08-01T09:21:41;3.05;;;2.17;;
79597;SDS011;69081;53.572;9.970;2023-08-01T09:24:09;2.70;;;2.10;;
79597;SDS011;69081;53.572;9.970;2023-08-01T09:26:37;3.00;;;2.30;;
79597;SDS011;69081;53.572;9.970;2023-08-01T09:29:06;2.70;;;2.03;;
79597;SDS011;69081;53.572;9.970;2023-08-01T09:34:05;3.35;;;2.20;;
79597;SDS011;69081;53.572;9.970;2023-08-01T09:36:47;3.05;;;2.20;;
79597;SDS011;69081;53.572;9.970;2023-08-01T09:39:15;2.75;;;2.05;;
79597;SDS011;69081;53.572;9.970;2023-08-01T09:41:44;3.80;;;2.60;;
79597;SDS011;69081;53.572;9.970;2023-08-01T09:44:14;2.78;;;2.17;;
79597;SDS011;69081;53.572;9.970;2023-08-01T09:46:44;3.95;;;2.53;;
79597;SDS011;69081;53.572;9.970;2023-08-01T09:49:23;2.95;;;2.08;;
79597;SDS011;69081;53.572;9.970;2023-08-01T09:51:52;2.95;;;2.40;;
79597;SDS011;69081;53.572;9.970;2023-08-01T09:54:21;2.55;;;2.15;;
79597;SDS011;69081;53.572;9.970;2023-08-01T09:56:50;3.28;;;2.45;;
79597;SDS011;69081;53.572;9.970;2023-08-01T09:59:19;3.25;;;2.15;;
79597;SDS011;69081;53.572;9.970;2023-08-01T10:01:49;2.80;;;2.17;;
79597;SDS011;69081;53.572;9.970;2023-08-01T10:04:18;2.67;;;2.05;;
79597;SDS011;69081;53.572;9.970;2023-08-01T10:06:49;2.65;;;2.10;;
79597;SDS011;69081;53.572;9.970;2023-08-01T10:09:27;2.63;;;2.10;;
79597;SDS011;69081;53.572;9.970;2023-08-01T10:11:57;3.00;;;1.90;;
79597;SDS011;69081;53.572;9.970;2023-08-01T10:14:26;2.60;;;2.15;;
79597;SDS011;69081;53.572;9.970;2023-08-01T10:16:54;2.30;;;1.90;;
79597;SDS011;69081;53.572;9.970;2023-08-01T10:19:24;3.10;;;2.20;;
79597;SDS011;69081;53.572;9.970;2023-08-01T10:21:54;3.15;;;2.30;;
79597;SDS011;69081;53.572;9.970;2023-08-01T10:24:22;2.75;;;2.25;;
79597;SDS011;69081;53.572;9.970;2023-08-01T10:26:51;3.47;;;2.05;;
79597;SDS011;69081;53.572;9.970;2023-08-01T10:29:20;2.97;;;2.30;;
79597;SDS011;69081;53.572;9.970;2023-08-01T10:31:51;3.03;;;1.80;;
79597;SDS011;69081;53.572;9.970;2023-08-01T10:34:20;3.30;;;2.38;;
79597;SDS011;69081;53.572;9.970;2023-08-01T10:36:56;3.55;;;2.30;;
79597;SDS011;69081;53.572;9.970;2023-08-01T10:39:25;2.50;;;2.00;;
79597;SDS011;69081;53.572;9.970;2023-08-01T10:41:57;2.75;;;2.00;;
79597;SDS011;69081;53.572;9.970;2023-08-01T10:44:26;2.63;;;1.90;;
79597;SDS011;69081;53.572;9.970;2023-08-01T10:46:58;3.10;;;2.03;;
79597;SDS011;69081;53.572;9.970;2023-08-01T10:49:34;2.80;;;2.10;;
79597;SDS011;69081;53.572;9.970;2023-08-01T10:52:15;3.70;;;2.55;;
79597;SDS011;69081;53.572;9.970;2023-08-01T10:54:44;2.55;;;1.77;;
79597;SDS011;69081;53.572;9.970;2023-08-01T10:59:43;2.30;;;1.90;;
79597;SDS011;69081;53.572;9.970;2023-08-01T11:04:39;2.35;;;2.15;;
79597;SDS011;69081;53.572;9.970;2023-08-01T11:07:11;2.67;;;1.90;;
79597;SDS011;69081;53.572;9.970;2023-08-01T11:09:39;2.47;;;2.00;;
79597;SDS011;69081;53.572;9.970;2023-08-01T11:12:08;3.20;;;2.22;;
79597;SDS011;69081;53.572;9.970;2023-08-01T11:14:37;2.20;;;1.88;;
79597;SDS011;69081;53.572;9.970;2023-08-01T11:17:05;2.85;;;2.25;;
79597;SDS011;69081;53.572;9.970;2023-08-01T11:19:33;2.83;;;1.75;;
79597;SDS011;69081;53.572;9.970;2023-08-01T11:22:08;2.35;;;1.88;;
79597;SDS011;69081;53.572;9.970;2023-08-01T11:24:38;2.50;;;2.03;;
79597;SDS011;69081;53.572;9.970;2023-08-01T11:27:06;2.58;;;2.13;;
79597;SDS011;69081;53.572;9.970;2023-08-01T11:29:37;2.85;;;2.10;;
79597;SDS011;69081;53.572;9.970;2023-08-01T11:32:07;1.95;;;1.63;;
79597;SDS011;69081;53.572;9.970;2023-08-01T11:34:39;2.58;;;1.95;;
79597;SDS011;69081;53.572;9.970;2023-08-01T11:39:39;2.30;;;2.10;;
79597;SDS011;69081;53.572;9.970;2023-08-01T11:42:13;3.00;;;2.10;;
79597;SDS011;69081;53.572;9.970;2023-08-01T11:44:42;2.05;;;1.73;;
79597;SDS011;69081;53.572;9.970;2023-08-01T11:47:11;2.85;;;2.00;;
79597;SDS011;69081;53.572;9.970;2023-08-01T11:49:44;2.95;;;1.70;;
79597;SDS011;69081;53.572;9.970;2023-08-01T11:52:24;2.10;;;1.60;;
79597;SDS011;69081;53.572;9.970;2023-08-01T11:54:54;3.20;;;2.28;;
79597;SDS011;69081;53.572;9.970;2023-08-01T11:57:23;2.33;;;1.85;;
79597;SDS011;69081;53.572;9.970;2023-08-01T12:02:20;2.10;;;1.70;;
79597;SDS011;69081;53.572;9.970;2023-08-01T12:04:50;2.10;;;1.90;;
79597;SDS011;69081;53.572;9.970;2023-08-01T12:07:19;2.08;;;1.77;;
79597;SDS011;69081;53.572;9.970;2023-08-01T12:09:59;2.40;;;1.80;;
79597;SDS011;69081;53.572;9.970;2023-08-01T12:12:28;2.17;;;1.80;;
79597;SDS011;69081;53.572;9.970;2023-08-01T12:14:56;2.25;;;1.88;;
79597;SDS011;69081;53.572;9.970;2023-08-01T12:19:53;2.60;;;1.73;;
79597;SDS011;69081;53.572;9.970;2023-08-01T12:22:21;2.30;;;1.85;;
79597;SDS011;69081;53.572;9.970;2023-08-01T12:24:50;1.90;;;1.60;;
79597;SDS011;69081;53.572;9.970;2023-08-01T12:27:19;2.22;;;1.80;;
79597;SDS011;69081;53.572;9.970;2023-08-01T12:29:47;2.10;;;1.65;;
79597;SDS011;69081;53.572;9.970;2023-08-01T12:32:15;2.50;;;2.10;;
79597;SDS011;69081;53.572;9.970;2023-08-01T12:34:44;3.10;;;1.92;;
79597;SDS011;69081;53.572;9.970;2023-08-01T12:37:12;2.30;;;1.75;;
79597;SDS011;69081;53.572;9.970;2023-08-01T12:42:08;2.00;;;1.65;;
79597;SDS011;69081;53.572;9.970;2023-08-01T12:44:38;2.10;;;1.80;;
79597;SDS011;69081;53.572;9.970;2023-08-01T12:47:06;2.97;;;2.03;;
79597;SDS011;69081;53.572;9.970;2023-08-01T12:49:38;1.50;;;1.40;;
79597;SDS011;69081;53.572;9.970;2023-08-01T12:52:06;2.20;;;1.92;;
79597;SDS011;69081;53.572;9.970;2023-08-01T12:54:34;1.90;;;1.70;;
79597;SDS011;69081;53.572;9.970;2023-08-01T12:57:02;2.50;;;1.60;;
79597;SDS011;69081;53.572;9.970;2023-08-01T12:59:31;2.05;;;1.80;;
79597;SDS011;69081;53.572;9.970;2023-08-01T13:02:01;2.30;;;1.70;;
79597;SDS011;69081;53.572;9.970;2023-08-01T13:04:34;2.17;;;1.70;;
79597;SDS011;69081;53.572;9.970;2023-08-01T13:07:03;2.47;;;1.70;;
79597;SDS011;69081;53.572;9.970;2023-08-01T13:09:31;2.42;;;1.83;;
79597;SDS011;69081;53.572;9.970;2023-08-01T13:12:00;1.92;;;1.60;;
79597;SDS011;69081;53.572;9.970;2023-08-01T13:14:31;2.42;;;1.80;;
79597;SDS011;69081;53.572;9.970;2023-08-01T13:17:01;2.00;;;1.83;;
79597;SDS011;69081;53.572;9.970;2023-08-01T13:19:30;2.17;;;1.70;;
79597;SDS011;69081;53.572;9.970;2023-08-01T13:21:58;2.03;;;1.50;;
79597;SDS011;69081;53.572;9.970;2023-08-01T13:24:26;2.08;;;1.67;;
79597;SDS011;69081;53.572;9.970;2023-08-01T13:26:54;2.13;;;1.63;;
79597;SDS011;69081;53.572;9.970;2023-08-01T13:29:23;2.35;;;1.95;;
79597;SDS011;69081;53.572;9.970;2023-08-01T13:31:51;2.20;;;1.80;;
79597;SDS011;69081;53.572;9.970;2023-08-01T13:34:20;2.92;;;1.95;;
79597;SDS011;69081;53.572;9.970;2023-08-01T13:36:48;1.88;;;1.67;;
79597;SDS011;69081;53.572;9.970;2023-08-01T13:39:17;1.77;;;1.45;;
79597;SDS011;69081;53.572;9.970;2023-08-01T13:41:45;2.05;;;1.73;;
79597;SDS011;69081;53.572;9.970;2023-08-01T13:44:13;2.45;;;1.88;;
79597;SDS011;69081;53.572;9.970;2023-08-01T13:46:41;1.70;;;1.60;;
79597;SDS011;69081;53.572;9.970;2023-08-01T13:49:10;1.70;;;1.60;;
79597;SDS011;69081;53.572;9.970;2023-08-01T13:51:41;3.10;;;1.40;;
79597;SDS011;69081;53.572;9.970;2023-08-01T13:54:09;2.17;;;1.75;;
79597;SDS011;69081;53.572;9.970;2023-08-01T13:56:37;1.95;;;1.60;;
79597;SDS011;69081;53.572;9.970;2023-08-01T14:01:34;1.60;;;1.50;;
79597;SDS011;69081;53.572;9.970;2023-08-01T14:04:05;2.10;;;1.70;;
79597;SDS011;69081;53.572;9.970;2023-08-01T14:06:35;2.25;;;1.77;;
79597;SDS011;69081;53.572;9.970;2023-08-01T14:09:05;1.80;;;1.60;;
79597;SDS011;69081;53.572;9.970;2023-08-01T14:11:33;1.70;;;1.60;;
79597;SDS011;69081;53.572;9.970;2023-08-01T14:14:01;1.80;;;1.70;;
79597;SDS011;69081;53.572;9.970;2023-08-01T14:16:29;2.38;;;1.90;;
79597;SDS011;69081;53.572;9.970;2023-08-01T14:18:58;1.98;;;1.60;;
79597;SDS011;69081;53.572;9.970;2023-08-01T14:23:55;1.38;;;1.27;;
79597;SDS011;69081;53.572;9.970;2023-08-01T14:26:25;1.77;;;1.60;;
79597;SDS011;69081;53.572;9.970;2023-08-01T14:28:53;1.77;;;1.52;;
79597;SDS011;69081;53.572;9.970;2023-08-01T14:31:21;2.83;;;2.00;;
79597;SDS011;69081;53.572;9.970;2023-08-01T14:33:49;2.00;;;1.65;;
79597;SDS011;69081;53.572;9.970;2023-08-01T14:36:18;1.70;;;1.33;;
79597;SDS011;69081;53.572;9.970;2023-08-01T14:38:46;2.28;;;1.60;;
79597;SDS011;69081;53.572;9.970;2023-08-01T14:41:25;1.50;;;1.40;;
79597;SDS011;69081;53.572;9.970;2023-08-01T14:44:13;2.28;;;1.70;;
79597;SDS011;69081;53.572;9.970;2023-08-01T14:46:41;1.85;;;1.70;;
79597;SDS011;69081;53.572;9.970;2023-08-01T14:49:10;2.33;;;1.50;;
79597;SDS011;69081;53.572;9.970;2023-08-01T14:51:38;1.83;;;1.65;;
79597;SDS011;69081;53.572;9.970;2023-08-01T14:54:06;1.75;;;1.42;;
79597;SDS011;69081;53.572;9.970;2023-08-01T14:56:36;1.83;;;1.50;;
79597;SDS011;69081;53.572;9.970;2023-08-01T14:59:05;2.13;;;1.70;;
79597;SDS011;69081;53.572;9.970;2023-08-01T15:01:33;1.90;;;1.60;;
79597;SDS011;69081;53.572;9.970;2023-08-01T15:04:01;2.15;;;1.75;;
79597;SDS011;69081;53.572;9.970;2023-08-01T15:06:29;1.67;;;1.50;;
79597;SDS011;69081;53.572;9.970;2023-08-01T15:08:59;2.03;;;1.55;;
79597;SDS011;69081;53.572;9.970;2023-08-01T15:11:27;3.15;;;1.80;;
79597;SDS011;69081;53.572;9.970;2023-08-01T15:13:57;2.47;;;1.70;;
79597;SDS011;69081;53.572;9.970;2023-08-01T15:16:25;3.03;;;1.73;;
79597;SDS011;69081;53.572;9.970;2023-08-01T15:18:54;2.13;;;1.50;;
79597;SDS011;69081;53.572;9.970;2023-08-01T15:21:22;1.75;;;1.45;;
79597;SDS011;69081;53.572;9.970;2023-08-01T15:23:52;2.20;;;1.75;;
79597;SDS011;69081;53.572;9.970;2023-08-01T15:26:20;2.00;;;1.65;;
79597;SDS011;69081;53.572;9.970;2023-08-01T15:28:49;1.50;;;1.40;;
79597;SDS011;69081;53.572;9.970;2023-08-01T15:31:18;1.77;;;1.40;;
79597;SDS011;69081;53.572;9.970;2023-08-01T15:33:46;1.52;;;1.30;;
79597;SDS011;69081;53.572;9.970;2023-08-01T15:36:15;1.70;;;1.50;;
79597;SDS011;69081;53.572;9.970;2023-08-01T15:38:43;1.80;;;1.58;;
79597;SDS011;69081;53.572;9.970;2023-08-01T15:41:11;1.73;;;1.55;;
79597;SDS011;69081;53.572;9.970;2023-08-01T15:43:39;1.40;;;1.30;;